sensor_id;sensor_type;location;lat;lon;timestamp;P1;durP1;ratioP1;P2;durP2;ratioP2
27618;SDS011;15039;50.830;4.730;2023-03-14T00:01:38;2.97;;;1.15;;
27618;SDS011;15039;50.830;4.730;2023-03-14T00:04:04;2.10;;;0.82;;
27618;SDS011;15039;50.830;4.730;2023-03-14T00:06:30;4.70;;;1.35;;
27618;SDS011;15039;50.830;4.730;2023-03-14T00:08:56;2.63;;;0.98;;
27618;SDS011;15039;50.830;4.730;2023-03-14T00:11:22;4.35;;;1.58;;
27618;SDS011;15039;50.830;4.730;2023-03-14T00:13:51;3.53;;;1.50;;
27618;SDS011;15039;50.830;4.730;2023-03-14T00:18:44;5.15;;;1.48;;
27618;SDS011;15039;50.830;4.730;2023-03-14T00:21:10;5.70;;;2.03;;
27618;SDS011;15039;50.830;4.730;2023-03-14T00:23:37;4.88;;;1.55;;
27618;SDS011;15039;50.830;4.730;2023-03-14T00:26:05;5.13;;;1.30;;
27618;SDS011;15039;50.830;4.730;2023-03-14T00:28:34;7.90;;;1.60;;
27618;SDS011;15039;50.830;4.730;2023-03-14T00:31:02;6.43;;;1.80;;
27618;SDS011;15039;50.830;4.730;2023-03-14T00:33:31;5.38;;;1.90;;
27618;SDS011;15039;50.830;4.730;2023-03-14T00:35:57;6.15;;;1.40;;
27618;SDS011;15039;50.830;4.730;2023-03-14T00:38:25;5.97;;;1.60;;
27618;SDS011;15039;50.830;4.730;2023-03-14T00:40:51;4.40;;;1.88;;
27618;SDS011;15039;50.830;4.730;2023-03-14T00:43:17;6.90;;;1.92;;
27618;SDS011;15039;50.830;4.730;2023-03-14T00:45:46;3.60;;;1.30;;
27618;SDS011;15039;50.830;4.730;2023-03-14T00:48:12;7.80;;;1.65;;
27618;SDS011;15039;50.830;4.730;2023-03-14T00:50:38;6.43;;;1.77;;
27618;SDS011;15039;50.830;4.730;2023-03-14T00:53:04;5.35;;;1.55;;
27618;SDS011;15039;50.830;4.730;2023-03-14T00:55:30;5.72;;;1.45;;
27618;SDS011;15039;50.830;4.730;2023-03-14T00:57:55;4.70;;;1.17;;
27618;SDS011;15039;50.830;4.730;2023-03-14T01:00:21;6.18;;;1.38;;
27618;SDS011;15039;50.830;4.730;2023-03-14T01:02:47;6.80;;;1.70;;
27618;SDS011;15039;50.830;4.730;2023-03-14T01:05:12;5.40;;;1.45;;
27618;SDS011;15039;50.830;4.730;2023-03-14T01:07:38;3.78;;;1.75;;
27618;SDS011;15039;50.830;4.730;2023-03-14T01:10:04;7.88;;;1.45;;
27618;SDS011;15039;50.830;4.730;2023-03-14T01:12:30;7.50;;;1.95;;
27618;SDS011;15039;50.830;4.730;2023-03-14T01:14:56;5.47;;;1.40;;
27618;SDS011;15039;50.830;4.730;2023-03-14T01:17:22;7.15;;;1.70;;
27618;SDS011;15039;50.830;4.730;2023-03-14T01:19:48;4.20;;;1.50;;
27618;SDS011;15039;50.830;4.730;2023-03-14T01:22:14;4.45;;;1.40;;
27618;SDS011;15039;50.830;4.730;2023-03-14T01:24:39;6.20;;;2.08;;
27618;SDS011;15039;50.830;4.730;2023-03-14T01:27:05;6.97;;;1.60;;
27618;SDS011;15039;50.830;4.730;2023-03-14T01:29:31;4.10;;;1.77;;
27618;SDS011;15039;50.830;4.730;2023-03-14T01:31:56;6.93;;;1.65;;
27618;SDS011;15039;50.830;4.730;2023-03-14T01:34:22;8.10;;;1.73;;
27618;SDS011;15039;50.830;4.730;2023-03-14T01:36:48;4.18;;;1.40;;
27618;SDS011;15039;50.830;4.730;2023-03-14T01:39:13;5.07;;;1.80;;
27618;SDS011;15039;50.830;4.730;2023-03-14T01:41:40;5.57;;;1.58;;
27618;SDS011;15039;50.830;4.730;2023-03-14T01:44:08;5.72;;;1.65;;
27618;SDS011;15039;50.830;4.730;2023-03-14T01:46:41;3.35;;;1.52;;
27618;SDS011;15039;50.830;4.730;2023-03-14T01:54:26;6.45;;;1.95;;
27618;SDS011;15039;50.830;4.730;2023-03-14T01:57:02;6.43;;;1.63;;
27618;SDS011;15039;50.830;4.730;2023-03-14T01:59:31;6.55;;;1.65;;
27618;SDS011;15039;50.830;4.730;2023-03-14T02:01:58;4.53;;;1.45;;
27618;SDS011;15039;50.830;4.730;2023-03-14T02:04:25;4.18;;;1.15;;
27618;SDS011;15039;50.830;4.730;2023-03-14T02:07:06;5.45;;;1.40;;
27618;SDS011;15039;50.830;4.730;2023-03-14T02:09:37;5.10;;;1.10;;
27618;SDS011;15039;50.830;4.730;2023-03-14T02:12:05;4.25;;;1.27;;
27618;SDS011;15039;50.830;4.730;2023-03-14T02:14:33;3.63;;;1.25;;
27618;SDS011;15039;50.830;4.730;2023-03-14T02:17:00;6.10;;;1.27;;
27618;SDS011;15039;50.830;4.730;2023-03-14T02:19:37;3.70;;;1.27;;
27618;SDS011;15039;50.830;4.730;2023-03-14T02:22:23;3.40;;;1.23;;
27618;SDS011;15039;50.830;4.730;2023-03-14T02:24:58;3.75;;;1.20;;
27618;SDS011;15039;50.830;4.730;2023-03-14T02:27:26;4.97;;;1.30;;
27618;SDS011;15039;50.830;4.730;2023-03-14T02:29:52;3.95;;;1.38;;
27618;SDS011;15039;50.830;4.730;2023-03-14T02:32:31;4.25;;;1.40;;
27618;SDS011;15039;50.830;4.730;2023-03-14T02:35:00;6.70;;;1.30;;
27618;SDS011;15039;50.830;4.730;2023-03-14T02:37:32;4.07;;;1.20;;
27618;SDS011;15039;50.830;4.730;2023-03-14T02:40:01;3.30;;;1.20;;
27618;SDS011;15039;50.830;4.730;2023-03-14T02:42:29;4.03;;;1.30;;
27618;SDS011;15039;50.830;4.730;2023-03-14T02:44:59;5.32;;;1.10;;
27618;SDS011;15039;50.830;4.730;2023-03-14T02:47:32;4.85;;;1.42;;
27618;SDS011;15039;50.830;4.730;2023-03-14T02:50:05;6.78;;;1.40;;
27618;SDS011;15039;50.830;4.730;2023-03-14T02:52:34;4.88;;;1.40;;
27618;SDS011;15039;50.830;4.730;2023-03-14T02:54:59;5.32;;;1.45;;
27618;SDS011;15039;50.830;4.730;2023-03-14T02:57:25;3.85;;;1.10;;
27618;SDS011;15039;50.830;4.730;2023-03-14T02:59:51;5.57;;;1.55;;
27618;SDS011;15039;50.830;4.730;2023-03-14T03:02:16;3.22;;;1.45;;
27618;SDS011;15039;50.830;4.730;2023-03-14T03:04:42;4.72;;;1.48;;
27618;SDS011;15039;50.830;4.730;2023-03-14T03:07:08;6.40;;;2.00;;
27618;SDS011;15039;50.830;4.730;2023-03-14T03:09:34;4.78;;;1.52;;
27618;SDS011;15039;50.830;4.730;2023-03-14T03:11:59;6.15;;;2.10;;
27618;SDS011;15039;50.830;4.730;2023-03-14T03:14:25;8.45;;;2.45;;
27618;SDS011;15039;50.830;4.730;2023-03-14T03:16:50;6.43;;;2.22;;
27618;SDS011;15039;50.830;4.730;2023-03-14T03:19:16;9.75;;;2.90;;
27618;SDS011;15039;50.830;4.730;2023-03-14T03:21:43;11.50;;;2.63;;
27618;SDS011;15039;50.830;4.730;2023-03-14T03:24:09;13.82;;;2.70;;
27618;SDS011;15039;50.830;4.730;2023-03-14T03:26:35;10.00;;;3.15;;
27618;SDS011;15039;50.830;4.730;2023-03-14T03:29:01;9.27;;;2.90;;
27618;SDS011;15039;50.830;4.730;2023-03-14T03:31:26;10.50;;;3.30;;
27618;SDS011;15039;50.830;4.730;2023-03-14T03:33:52;7.95;;;2.88;;
27618;SDS011;15039;50.830;4.730;2023-03-14T03:36:22;9.07;;;3.33;;
27618;SDS011;15039;50.830;4.730;2023-03-14T03:38:48;9.57;;;3.00;;
27618;SDS011;15039;50.830;4.730;2023-03-14T03:41:14;10.07;;;3.08;;
27618;SDS011;15039;50.830;4.730;2023-03-14T03:43:40;8.90;;;2.95;;
27618;SDS011;15039;50.830;4.730;2023-03-14T03:46:06;7.30;;;2.53;;
27618;SDS011;15039;50.830;4.730;2023-03-14T03:48:32;6.35;;;2.50;;
27618;SDS011;15039;50.830;4.730;2023-03-14T03:50:58;7.53;;;2.20;;
27618;SDS011;15039;50.830;4.730;2023-03-14T03:53:24;7.38;;;2.30;;
27618;SDS011;15039;50.830;4.730;2023-03-14T03:55:49;7.78;;;2.33;;
27618;SDS011;15039;50.830;4.730;2023-03-14T03:58:15;5.82;;;2.25;;
27618;SDS011;15039;50.830;4.730;2023-03-14T04:00:40;5.80;;;2.10;;
27618;SDS011;15039;50.830;4.730;2023-03-14T04:03:06;5.88;;;1.83;;
27618;SDS011;15039;50.830;4.730;2023-03-14T04:05:32;8.25;;;2.50;;
27618;SDS011;15039;50.830;4.730;2023-03-14T04:07:59;9.63;;;2.30;;
27618;SDS011;15039;50.830;4.730;2023-03-14T04:10:25;4.22;;;2.50;;
27618;SDS011;15039;50.830;4.730;2023-03-14T04:12:50;7.43;;;2.00;;
27618;SDS011;15039;50.830;4.730;2023-03-14T04:15:17;7.82;;;2.55;;
27618;SDS011;15039;50.830;4.730;2023-03-14T04:17:43;3.65;;;2.22;;
27618;SDS011;15039;50.830;4.730;2023-03-14T04:20:08;8.20;;;1.95;;
27618;SDS011;15039;50.830;4.730;2023-03-14T04:22:36;4.88;;;2.17;;
27618;SDS011;15039;50.830;4.730;2023-03-14T04:25:02;4.53;;;1.80;;
27618;SDS011;15039;50.830;4.730;2023-03-14T04:27:28;6.80;;;2.22;;
27618;SDS011;15039;50.830;4.730;2023-03-14T04:29:54;7.28;;;2.53;;
27618;SDS011;15039;50.830;4.730;2023-03-14T04:32:20;3.97;;;1.92;;
27618;SDS011;15039;50.830;4.730;2023-03-14T04:34:46;8.20;;;2.35;;
27618;SDS011;15039;50.830;4.730;2023-03-14T04:37:12;5.75;;;1.80;;
27618;SDS011;15039;50.830;4.730;2023-03-14T04:39:37;2.63;;;1.30;;
27618;SDS011;15039;50.830;4.730;2023-03-14T04:42:03;8.38;;;2.10;;
27618;SDS011;15039;50.830;4.730;2023-03-14T04:44:29;8.23;;;2.10;;
27618;SDS011;15039;50.830;4.730;2023-03-14T04:46:54;4.63;;;1.88;;
27618;SDS011;15039;50.830;4.730;2023-03-14T04:49:20;3.78;;;1.60;;
27618;SDS011;15039;50.830;4.730;2023-03-14T04:51:46;3.80;;;1.65;;
27618;SDS011;15039;50.830;4.730;2023-03-14T04:54:11;3.95;;;1.63;;
27618;SDS011;15039;50.830;4.730;2023-03-14T04:56:37;3.78;;;1.48;;
27618;SDS011;15039;50.830;4.730;2023-03-14T04:59:03;5.03;;;1.77;;
27618;SDS011;15039;50.830;4.730;2023-03-14T05:01:29;3.55;;;1.50;;
27618;SDS011;15039;50.830;4.730;2023-03-14T05:03:54;4.75;;;1.60;;
27618;SDS011;15039;50.830;4.730;2023-03-14T05:06:20;3.55;;;1.52;;
27618;SDS011;15039;50.830;4.730;2023-03-14T05:08:46;3.05;;;1.70;;
27618;SDS011;15039;50.830;4.730;2023-03-14T05:11:11;2.25;;;1.40;;
27618;SDS011;15039;50.830;4.730;2023-03-14T05:13:37;1.77;;;1.02;;
27618;SDS011;15039;50.830;4.730;2023-03-14T05:16:05;3.13;;;1.30;;
27618;SDS011;15039;50.830;4.730;2023-03-14T05:18:32;3.88;;;1.58;;
27618;SDS011;15039;50.830;4.730;2023-03-14T05:20:58;1.52;;;1.30;;
27618;SDS011;15039;50.830;4.730;2023-03-14T05:23:24;4.18;;;1.98;;
27618;SDS011;15039;50.830;4.730;2023-03-14T05:25:50;4.32;;;1.90;;
27618;SDS011;15039;50.830;4.730;2023-03-14T05:28:16;2.80;;;1.60;;
27618;SDS011;15039;50.830;4.730;2023-03-14T05:30:41;2.10;;;1.30;;
27618;SDS011;15039;50.830;4.730;2023-03-14T05:33:07;2.08;;;1.60;;
27618;SDS011;15039;50.830;4.730;2023-03-14T05:35:32;2.40;;;1.38;;
27618;SDS011;15039;50.830;4.730;2023-03-14T05:37:58;2.67;;;1.38;;
27618;SDS011;15039;50.830;4.730;2023-03-14T05:40:24;1.30;;;1.15;;
27618;SDS011;15039;50.830;4.730;2023-03-14T05:42:49;2.67;;;1.45;;
27618;SDS011;15039;50.830;4.730;2023-03-14T05:45:15;2.20;;;1.40;;
27618;SDS011;15039;50.830;4.730;2023-03-14T05:47:40;4.57;;;1.70;;
27618;SDS011;15039;50.830;4.730;2023-03-14T05:50:06;2.33;;;1.70;;
27618;SDS011;15039;50.830;4.730;2023-03-14T05:52:32;2.92;;;2.05;;
27618;SDS011;15039;50.830;4.730;2023-03-14T05:54:58;2.13;;;1.92;;
27618;SDS011;15039;50.830;4.730;2023-03-14T05:57:23;2.28;;;1.90;;
27618;SDS011;15039;50.830;4.730;2023-03-14T05:59:49;3.78;;;1.75;;
27618;SDS011;15039;50.830;4.730;2023-03-14T06:02:15;3.08;;;2.40;;
27618;SDS011;15039;50.830;4.730;2023-03-14T06:04:40;2.10;;;1.80;;
27618;SDS011;15039;50.830;4.730;2023-03-14T06:07:06;2.30;;;1.75;;
27618;SDS011;15039;50.830;4.730;2023-03-14T06:09:31;5.22;;;2.10;;
27618;SDS011;15039;50.830;4.730;2023-03-14T06:11:57;2.00;;;1.80;;
27618;SDS011;15039;50.830;4.730;2023-03-14T06:14:22;4.07;;;2.80;;
27618;SDS011;15039;50.830;4.730;2023-03-14T06:16:48;2.88;;;1.90;;
27618;SDS011;15039;50.830;4.730;2023-03-14T06:19:14;4.88;;;2.03;;
27618;SDS011;15039;50.830;4.730;2023-03-14T06:21:40;3.90;;;2.40;;
27618;SDS011;15039;50.830;4.730;2023-03-14T06:24:05;4.78;;;2.40;;
27618;SDS011;15039;50.830;4.730;2023-03-14T06:26:31;4.50;;;2.20;;
27618;SDS011;15039;50.830;4.730;2023-03-14T06:28:57;3.10;;;2.30;;
27618;SDS011;15039;50.830;4.730;2023-03-14T06:31:28;2.95;;;2.17;;
27618;SDS011;15039;50.830;4.730;2023-03-14T06:33:56;3.58;;;2.10;;
27618;SDS011;15039;50.830;4.730;2023-03-14T06:36:22;3.85;;;2.50;;
27618;SDS011;15039;50.830;4.730;2023-03-14T06:38:48;3.42;;;2.35;;
27618;SDS011;15039;50.830;4.730;2023-03-14T06:41:13;3.78;;;2.35;;
27618;SDS011;15039;50.830;4.730;2023-03-14T06:43:39;3.45;;;2.53;;
27618;SDS011;15039;50.830;4.730;2023-03-14T06:46:05;7.22;;;2.80;;
27618;SDS011;15039;50.830;4.730;2023-03-14T06:48:31;6.85;;;2.47;;
27618;SDS011;15039;50.830;4.730;2023-03-14T06:50:56;4.65;;;2.67;;
27618;SDS011;15039;50.830;4.730;2023-03-14T06:53:22;4.50;;;2.88;;
27618;SDS011;15039;50.830;4.730;2023-03-14T06:55:48;3.30;;;2.35;;
27618;SDS011;15039;50.830;4.730;2023-03-14T06:58:14;4.78;;;2.80;;
27618;SDS011;15039;50.830;4.730;2023-03-14T07:00:39;2.80;;;2.28;;
27618;SDS011;15039;50.830;4.730;2023-03-14T07:03:05;3.00;;;2.42;;
27618;SDS011;15039;50.830;4.730;2023-03-14T07:05:31;7.20;;;2.83;;
27618;SDS011;15039;50.830;4.730;2023-03-14T07:07:56;3.08;;;2.33;;
27618;SDS011;15039;50.830;4.730;2023-03-14T07:10:22;5.00;;;2.30;;
27618;SDS011;15039;50.830;4.730;2023-03-14T07:12:48;3.40;;;2.33;;
27618;SDS011;15039;50.830;4.730;2023-03-14T07:15:14;1.33;;;1.23;;
27618;SDS011;15039;50.830;4.730;2023-03-14T07:17:39;0.98;;;0.93;;
27618;SDS011;15039;50.830;4.730;2023-03-14T07:20:05;1.08;;;0.90;;
27618;SDS011;15039;50.830;4.730;2023-03-14T07:22:32;0.98;;;0.70;;
27618;SDS011;15039;50.830;4.730;2023-03-14T07:24:58;0.85;;;0.85;;
27618;SDS011;15039;50.830;4.730;2023-03-14T07:27:23;2.65;;;0.80;;
27618;SDS011;15039;50.830;4.730;2023-03-14T07:29:49;0.65;;;0.60;;
27618;SDS011;15039;50.830;4.730;2023-03-14T07:32:14;2.55;;;0.90;;
27618;SDS011;15039;50.830;4.730;2023-03-14T07:34:41;0.80;;;0.80;;
27618;SDS011;15039;50.830;4.730;2023-03-14T07:37:07;1.55;;;1.00;;
27618;SDS011;15039;50.830;4.730;2023-03-14T07:39:32;1.92;;;1.00;;
27618;SDS011;15039;50.830;4.730;2023-03-14T07:41:59;1.30;;;1.20;;
27618;SDS011;15039;50.830;4.730;2023-03-14T07:44:25;2.78;;;1.30;;
27618;SDS011;15039;50.830;4.730;2023-03-14T07:46:51;2.80;;;1.60;;
27618;SDS011;15039;50.830;4.730;2023-03-14T07:49:17;1.73;;;1.63;;
27618;SDS011;15039;50.830;4.730;2023-03-14T07:51:42;2.88;;;2.03;;
27618;SDS011;15039;50.830;4.730;2023-03-14T07:54:09;5.13;;;2.25;;
27618;SDS011;15039;50.830;4.730;2023-03-14T07:56:35;4.95;;;1.90;;
27618;SDS011;15039;50.830;4.730;2023-03-14T07:59:01;4.75;;;2.58;;
27618;SDS011;15039;50.830;4.730;2023-03-14T08:01:26;4.95;;;2.25;;
27618;SDS011;15039;50.830;4.730;2023-03-14T08:03:52;3.22;;;1.88;;
27618;SDS011;15039;50.830;4.730;2023-03-14T08:06:18;2.05;;;1.85;;
27618;SDS011;15039;50.830;4.730;2023-03-14T08:08:43;3.88;;;1.88;;
27618;SDS011;15039;50.830;4.730;2023-03-14T08:11:09;5.45;;;2.03;;
27618;SDS011;15039;50.830;4.730;2023-03-14T08:13:35;2.97;;;2.00;;
27618;SDS011;15039;50.830;4.730;2023-03-14T08:16:01;4.70;;;2.28;;
27618;SDS011;15039;50.830;4.730;2023-03-14T08:18:27;6.32;;;2.45;;
27618;SDS011;15039;50.830;4.730;2023-03-14T08:20:53;3.35;;;2.30;;
27618;SDS011;15039;50.830;4.730;2023-03-14T08:23:19;4.43;;;2.40;;
27618;SDS011;15039;50.830;4.730;2023-03-14T08:25:44;2.70;;;2.00;;
27618;SDS011;15039;50.830;4.730;2023-03-14T08:28:10;3.55;;;1.80;;
27618;SDS011;15039;50.830;4.730;2023-03-14T08:30:36;9.23;;;2.17;;
27618;SDS011;15039;50.830;4.730;2023-03-14T08:33:01;2.08;;;1.70;;
27618;SDS011;15039;50.830;4.730;2023-03-14T08:35:27;3.20;;;1.92;;
27618;SDS011;15039;50.830;4.730;2023-03-14T08:37:53;3.72;;;1.85;;
27618;SDS011;15039;50.830;4.730;2023-03-14T08:40:19;3.35;;;1.75;;
27618;SDS011;15039;50.830;4.730;2023-03-14T08:42:44;1.50;;;1.40;;
27618;SDS011;15039;50.830;4.730;2023-03-14T08:45:11;4.03;;;1.73;;
27618;SDS011;15039;50.830;4.730;2023-03-14T08:47:38;2.35;;;1.98;;
27618;SDS011;15039;50.830;4.730;2023-03-14T08:50:05;3.88;;;2.35;;
27618;SDS011;15039;50.830;4.730;2023-03-14T08:52:31;2.63;;;2.28;;
27618;SDS011;15039;50.830;4.730;2023-03-14T08:54:59;2.17;;;1.98;;
27618;SDS011;15039;50.830;4.730;2023-03-14T08:57:25;3.88;;;2.28;;
27618;SDS011;15039;50.830;4.730;2023-03-14T08:59:56;3.97;;;2.90;;
27618;SDS011;15039;50.830;4.730;2023-03-14T09:02:22;4.07;;;2.28;;
27618;SDS011;15039;50.830;4.730;2023-03-14T09:04:49;4.47;;;2.30;;
27618;SDS011;15039;50.830;4.730;2023-03-14T09:07:16;3.63;;;2.47;;
27618;SDS011;15039;50.830;4.730;2023-03-14T09:09:42;3.95;;;2.38;;
27618;SDS011;15039;50.830;4.730;2023-03-14T09:12:07;3.40;;;2.33;;
27618;SDS011;15039;50.830;4.730;2023-03-14T09:14:33;3.17;;;2.50;;
27618;SDS011;15039;50.830;4.730;2023-03-14T09:16:59;3.97;;;2.55;;
27618;SDS011;15039;50.830;4.730;2023-03-14T09:19:24;5.20;;;2.60;;
27618;SDS011;15039;50.830;4.730;2023-03-14T09:21:50;3.28;;;2.33;;
27618;SDS011;15039;50.830;4.730;2023-03-14T09:24:16;4.18;;;2.72;;
27618;SDS011;15039;50.830;4.730;2023-03-14T09:26:42;4.53;;;2.53;;
27618;SDS011;15039;50.830;4.730;2023-03-14T09:29:08;3.03;;;2.55;;
27618;SDS011;15039;50.830;4.730;2023-03-14T09:31:34;4.03;;;2.50;;
27618;SDS011;15039;50.830;4.730;2023-03-14T09:34:00;5.45;;;2.88;;
27618;SDS011;15039;50.830;4.730;2023-03-14T09:36:25;4.30;;;2.80;;
27618;SDS011;15039;50.830;4.730;2023-03-14T09:38:51;4.20;;;2.55;;
27618;SDS011;15039;50.830;4.730;2023-03-14T09:41:30;5.82;;;2.30;;
27618;SDS011;15039;50.830;4.730;2023-03-14T09:44:03;4.95;;;2.10;;
27618;SDS011;15039;50.830;4.730;2023-03-14T09:46:40;3.55;;;2.28;;
27618;SDS011;15039;50.830;4.730;2023-03-14T09:49:10;3.85;;;2.45;;
27618;SDS011;15039;50.830;4.730;2023-03-14T09:51:47;3.65;;;2.38;;
27618;SDS011;15039;50.830;4.730;2023-03-14T09:54:38;3.47;;;2.20;;
27618;SDS011;15039;50.830;4.730;2023-03-14T09:57:25;5.80;;;2.30;;
27618;SDS011;15039;50.830;4.730;2023-03-14T09:59:52;2.50;;;2.30;;
27618;SDS011;15039;50.830;4.730;2023-03-14T10:02:28;4.07;;;2.45;;
27618;SDS011;15039;50.830;4.730;2023-03-14T10:04:59;6.40;;;2.20;;
27618;SDS011;15039;50.830;4.730;2023-03-14T10:07:29;4.53;;;2.70;;
27618;SDS011;15039;50.830;4.730;2023-03-14T10:09:56;7.35;;;2.70;;
27618;SDS011;15039;50.830;4.730;2023-03-14T10:12:33;4.30;;;2.03;;
27618;SDS011;15039;50.830;4.730;2023-03-14T10:15:04;6.38;;;2.17;;
27618;SDS011;15039;50.830;4.730;2023-03-14T10:17:43;5.03;;;2.70;;
27618;SDS011;15039;50.830;4.730;2023-03-14T10:22:57;6.38;;;2.45;;
27618;SDS011;15039;50.830;4.730;2023-03-14T10:25:28;5.40;;;2.67;;
27618;SDS011;15039;50.830;4.730;2023-03-14T10:27:56;5.63;;;2.40;;
27618;SDS011;15039;50.830;4.730;2023-03-14T10:30:38;5.63;;;2.58;;
27618;SDS011;15039;50.830;4.730;2023-03-14T10:35:57;8.55;;;2.50;;
27618;SDS011;15039;50.830;4.730;2023-03-14T10:38:27;4.95;;;2.78;;
27618;SDS011;15039;50.830;4.730;2023-03-14T10:40:54;5.35;;;2.63;;
27618;SDS011;15039;50.830;4.730;2023-03-14T10:43:31;4.13;;;2.10;;
27618;SDS011;15039;50.830;4.730;2023-03-14T10:45:59;4.95;;;2.25;;
27618;SDS011;15039;50.830;4.730;2023-03-14T10:48:34;5.13;;;1.60;;
27618;SDS011;15039;50.830;4.730;2023-03-14T10:51:06;2.58;;;1.60;;
27618;SDS011;15039;50.830;4.730;2023-03-14T10:53:33;4.10;;;1.55;;
27618;SDS011;15039;50.830;4.730;2023-03-14T10:56:11;2.83;;;1.40;;
27618;SDS011;15039;50.830;4.730;2023-03-14T10:58:50;4.32;;;1.70;;
27618;SDS011;15039;50.830;4.730;2023-03-14T11:03:57;3.47;;;1.55;;
27618;SDS011;15039;50.830;4.730;2023-03-14T11:21:16;3.88;;;1.38;;
27618;SDS011;15039;50.830;4.730;2023-03-14T11:29:34;2.55;;;1.25;;
27618;SDS011;15039;50.830;4.730;2023-03-14T11:32:19;2.78;;;1.52;;
27618;SDS011;15039;50.830;4.730;2023-03-14T11:35:03;2.38;;;0.73;;
27618;SDS011;15039;50.830;4.730;2023-03-14T11:37:39;2.25;;;0.95;;
27618;SDS011;15039;50.830;4.730;2023-03-14T11:40:19;0.30;;;0.30;;
27618;SDS011;15039;50.830;4.730;2023-03-14T11:43:35;0.30;;;0.30;;
27618;SDS011;15039;50.830;4.730;2023-03-14T11:45:51;0.30;;;0.30;;
27618;SDS011;15039;50.830;4.730;2023-03-14T11:51:17;0.30;;;0.30;;
27618;SDS011;15039;50.830;4.730;2023-03-14T11:54:02;0.30;;;0.30;;
27618;SDS011;15039;50.830;4.730;2023-03-14T11:57:03;0.20;;;0.20;;
27618;SDS011;15039;50.830;4.730;2023-03-14T12:02:33;0.30;;;0.30;;
27618;SDS011;15039;50.830;4.730;2023-03-14T12:10:38;0.25;;;0.25;;
27618;SDS011;15039;50.830;4.730;2023-03-14T12:13:36;0.20;;;0.20;;
27618;SDS011;15039;50.830;4.730;2023-03-14T12:16:07;0.20;;;0.20;;
27618;SDS011;15039;50.830;4.730;2023-03-14T12:18:49;0.30;;;0.30;;
27618;SDS011;15039;50.830;4.730;2023-03-14T12:21:16;0.20;;;0.20;;
27618;SDS011;15039;50.830;4.730;2023-03-14T12:28:37;0.30;;;0.30;;
27618;SDS011;15039;50.830;4.730;2023-03-14T12:34:01;0.20;;;0.20;;
27618;SDS011;15039;50.830;4.730;2023-03-14T12:42:08;0.30;;;0.30;;
27618;SDS011;15039;50.830;4.730;2023-03-14T12:44:48;0.28;;;0.28;;
27618;SDS011;15039;50.830;4.730;2023-03-14T12:47:40;0.30;;;0.30;;
27618;SDS011;15039;50.830;4.730;2023-03-14T12:50:07;0.30;;;0.30;;
27618;SDS011;15039;50.830;4.730;2023-03-14T12:52:57;0.30;;;0.30;;
27618;SDS011;15039;50.830;4.730;2023-03-14T12:55:38;0.30;;;0.30;;
27618;SDS011;15039;50.830;4.730;2023-03-14T12:58:31;1.55;;;0.93;;
27618;SDS011;15039;50.830;4.730;2023-03-14T13:01:04;0.20;;;0.20;;
27618;SDS011;15039;50.830;4.730;2023-03-14T13:03:52;1.93;;;0.87;;
27618;SDS011;15039;50.830;4.730;2023-03-14T13:12:09;0.30;;;0.30;;
27618;SDS011;15039;50.830;4.730;2023-03-14T13:14:40;0.30;;;0.30;;
27618;SDS011;15039;50.830;4.730;2023-03-14T13:17:10;0.40;;;0.40;;
27618;SDS011;15039;50.830;4.730;2023-03-14T13:19:36;0.20;;;0.20;;
27618;SDS011;15039;50.830;4.730;2023-03-14T13:22:04;0.57;;;0.50;;
27618;SDS011;15039;50.830;4.730;2023-03-14T13:24:38;2.35;;;0.80;;
27618;SDS011;15039;50.830;4.730;2023-03-14T13:27:03;0.45;;;0.45;;
27618;SDS011;15039;50.830;4.730;2023-03-14T13:29:32;0.30;;;0.30;;
27618;SDS011;15039;50.830;4.730;2023-03-14T13:32:01;0.85;;;0.55;;
27618;SDS011;15039;50.830;4.730;2023-03-14T13:34:37;0.20;;;0.20;;
27618;SDS011;15039;50.830;4.730;2023-03-14T13:37:03;0.30;;;0.30;;
27618;SDS011;15039;50.830;4.730;2023-03-14T13:39:29;0.25;;;0.25;;
27618;SDS011;15039;50.830;4.730;2023-03-14T13:41:59;0.20;;;0.20;;
27618;SDS011;15039;50.830;4.730;2023-03-14T13:44:27;0.40;;;0.40;;
27618;SDS011;15039;50.830;4.730;2023-03-14T13:47:01;0.25;;;0.25;;
27618;SDS011;15039;50.830;4.730;2023-03-14T13:49:28;0.30;;;0.30;;
27618;SDS011;15039;50.830;4.730;2023-03-14T13:51:57;0.75;;;0.75;;
27618;SDS011;15039;50.830;4.730;2023-03-14T13:54:24;0.30;;;0.30;;
27618;SDS011;15039;50.830;4.730;2023-03-14T13:57:02;0.30;;;0.30;;
27618;SDS011;15039;50.830;4.730;2023-03-14T13:59:30;0.40;;;0.40;;
27618;SDS011;15039;50.830;4.730;2023-03-14T14:02:02;0.38;;;0.38;;
27618;SDS011;15039;50.830;4.730;2023-03-14T14:04:32;0.35;;;0.35;;
27618;SDS011;15039;50.830;4.730;2023-03-14T14:07:00;0.55;;;0.55;;
27618;SDS011;15039;50.830;4.730;2023-03-14T14:09:38;0.40;;;0.40;;
27618;SDS011;15039;50.830;4.730;2023-03-14T14:12:05;0.40;;;0.40;;
27618;SDS011;15039;50.830;4.730;2023-03-14T14:14:48;0.60;;;0.60;;
27618;SDS011;15039;50.830;4.730;2023-03-14T14:17:25;0.95;;;0.90;;
27618;SDS011;15039;50.830;4.730;2023-03-14T14:19:56;0.50;;;0.50;;
27618;SDS011;15039;50.830;4.730;2023-03-14T14:22:22;0.50;;;0.50;;
27618;SDS011;15039;50.830;4.730;2023-03-14T14:24:49;22.23;;;0.93;;
27618;SDS011;15039;50.830;4.730;2023-03-14T14:27:32;0.73;;;0.70;;
27618;SDS011;15039;50.830;4.730;2023-03-14T14:30:06;0.63;;;0.63;;
27618;SDS011;15039;50.830;4.730;2023-03-14T14:32:50;0.68;;;0.68;;
27618;SDS011;15039;50.830;4.730;2023-03-14T14:35:23;0.30;;;0.30;;
27618;SDS011;15039;50.830;4.730;2023-03-14T14:37:51;0.30;;;0.30;;
27618;SDS011;15039;50.830;4.730;2023-03-14T14:40:19;0.20;;;0.20;;
27618;SDS011;15039;50.830;4.730;2023-03-14T14:43:02;0.53;;;0.53;;
27618;SDS011;15039;50.830;4.730;2023-03-14T14:45:29;0.40;;;0.40;;
27618;SDS011;15039;50.830;4.730;2023-03-14T14:48:01;0.30;;;0.30;;
27618;SDS011;15039;50.830;4.730;2023-03-14T14:50:50;0.45;;;0.45;;
27618;SDS011;15039;50.830;4.730;2023-03-14T14:53:30;0.40;;;0.40;;
27618;SDS011;15039;50.830;4.730;2023-03-14T14:58:43;0.30;;;0.30;;
27618;SDS011;15039;50.830;4.730;2023-03-14T15:03:41;0.60;;;0.60;;
27618;SDS011;15039;50.830;4.730;2023-03-14T15:06:08;0.38;;;0.38;;
27618;SDS011;15039;50.830;4.730;2023-03-14T15:08:37;0.38;;;0.38;;
27618;SDS011;15039;50.830;4.730;2023-03-14T15:11:02;0.50;;;0.50;;
27618;SDS011;15039;50.830;4.730;2023-03-14T15:13:28;0.30;;;0.30;;
27618;SDS011;15039;50.830;4.730;2023-03-14T15:15:54;0.38;;;0.38;;
27618;SDS011;15039;50.830;4.730;2023-03-14T15:18:21;0.20;;;0.20;;
27618;SDS011;15039;50.830;4.730;2023-03-14T15:20:49;0.30;;;0.30;;
27618;SDS011;15039;50.830;4.730;2023-03-14T15:23:16;0.30;;;0.30;;
27618;SDS011;15039;50.830;4.730;2023-03-14T15:25:45;0.30;;;0.30;;
27618;SDS011;15039;50.830;4.730;2023-03-14T15:30:45;0.40;;;0.40;;
27618;SDS011;15039;50.830;4.730;2023-03-14T15:33:12;0.30;;;0.30;;
27618;SDS011;15039;50.830;4.730;2023-03-14T15:35:38;0.85;;;0.85;;
27618;SDS011;15039;50.830;4.730;2023-03-14T15:38:04;0.40;;;0.40;;
27618;SDS011;15039;50.830;4.730;2023-03-14T15:40:30;0.40;;;0.40;;
27618;SDS011;15039;50.830;4.730;2023-03-14T15:42:56;0.25;;;0.25;;
27618;SDS011;15039;50.830;4.730;2023-03-14T15:45:22;0.50;;;0.50;;
27618;SDS011;15039;50.830;4.730;2023-03-14T15:47:47;0.65;;;0.65;;
27618;SDS011;15039;50.830;4.730;2023-03-14T15:50:13;0.30;;;0.30;;
27618;SDS011;15039;50.830;4.730;2023-03-14T15:52:39;5.95;;;1.25;;
27618;SDS011;15039;50.830;4.730;2023-03-14T15:55:04;0.60;;;0.60;;
27618;SDS011;15039;50.830;4.730;2023-03-14T15:57:30;0.30;;;0.30;;
27618;SDS011;15039;50.830;4.730;2023-03-14T15:59:56;0.32;;;0.32;;
27618;SDS011;15039;50.830;4.730;2023-03-14T16:02:21;0.20;;;0.20;;
27618;SDS011;15039;50.830;4.730;2023-03-14T16:04:47;0.20;;;0.20;;
27618;SDS011;15039;50.830;4.730;2023-03-14T16:07:12;0.30;;;0.30;;
27618;SDS011;15039;50.830;4.730;2023-03-14T16:09:38;0.45;;;0.45;;
27618;SDS011;15039;50.830;4.730;2023-03-14T16:12:04;0.60;;;0.60;;